createdAt,value
2019-06-08T00:00:13.086Z,90.38
2019-06-08T00:02:44.324Z,90.39
2019-06-08T00:05:16.756Z,90.44
2019-06-08T00:07:47.526Z,90.27
2019-06-08T00:10:22.328Z,90.31
2019-06-08T00:12:52.654Z,90.31
2019-06-08T00:15:24.347Z,90.20
2019-06-08T00:17:55.062Z,90.19
2019-06-08T00:20:25.615Z,90.13
2019-06-08T00:22:57.173Z,90.06
2019-06-08T00:25:27.583Z,90.12
2019-06-08T00:27:58.466Z,90.11
2019-06-08T00:30:29.015Z,90.22
2019-06-08T00:32:59.884Z,90.05
2019-06-08T00:35:30.737Z,90.15
2019-06-08T00:38:01.704Z,90.09
2019-06-08T00:40:32.159Z,90.30
2019-06-08T00:43:02.756Z,90.32
2019-06-08T00:45:33.193Z,90.50
2019-06-08T00:48:04.135Z,90.53
2019-06-08T00:50:35.051Z,90.49
2019-06-08T00:53:05.976Z,90.54
2019-06-08T00:55:36.388Z,90.50
2019-06-08T00:58:07.125Z,90.61
2019-06-08T01:00:37.870Z,90.64
2019-06-08T01:03:09.477Z,90.70
2019-06-08T01:05:40.699Z,90.64
2019-06-08T01:08:12.334Z,90.74
2019-06-08T01:10:43.251Z,90.59
2019-06-08T01:13:13.672Z,90.39
2019-06-08T01:15:44.338Z,90.28
2019-06-08T01:18:14.800Z,90.33
2019-06-08T01:20:45.493Z,90.36
2019-06-08T01:23:16.241Z,90.46
2019-06-08T01:25:46.699Z,90.48
2019-06-08T01:28:17.601Z,90.64
2019-06-08T01:30:48.246Z,90.65
2019-06-08T01:33:20.486Z,90.68
2019-06-08T01:35:51.332Z,90.63
2019-06-08T01:38:22.925Z,90.69
2019-06-08T01:40:53.522Z,90.57
2019-06-08T01:43:24.079Z,90.57
2019-06-08T01:45:54.801Z,90.43
2019-06-08T01:48:26.292Z,90.32
2019-06-08T01:50:57.260Z,90.34
2019-06-08T01:53:28.842Z,90.22
2019-06-08T01:55:59.534Z,90.24
2019-06-08T01:58:31.404Z,89.83
2019-06-08T02:01:02.054Z,89.86
2019-06-08T02:03:32.836Z,89.49
2019-06-08T02:06:04.053Z,89.48
2019-06-08T02:08:34.767Z,89.18
2019-06-08T02:11:06.082Z,89.16
2019-06-08T02:13:36.867Z,88.90
2019-06-08T02:16:07.718Z,89.04
2019-06-08T02:18:48.950Z,88.91
2019-06-08T02:21:11.168Z,88.74
2019-06-08T02:23:41.895Z,88.60
2019-06-08T02:26:12.706Z,88.67
2019-06-08T02:28:44.343Z,88.75
2019-06-08T02:31:14.828Z,88.58
2019-06-08T02:33:48.500Z,88.42
2019-06-08T02:36:19.268Z,88.25
2019-06-08T02:38:49.825Z,88.31
2019-06-08T02:41:23.345Z,88.20
2019-06-08T02:43:53.864Z,88.09
2019-06-08T02:46:24.406Z,88.27
2019-06-08T02:49:04.094Z,88.35
2019-06-08T02:51:28.730Z,88.51
2019-06-08T02:54:01.203Z,88.47
2019-06-08T02:56:34.137Z,88.21
2019-06-08T02:59:06.395Z,87.74
2019-06-08T03:01:38.905Z,87.76
2019-06-08T03:04:09.337Z,87.62
2019-06-08T03:06:43.217Z,87.44
2019-06-08T03:09:13.819Z,87.38
2019-06-08T03:11:47.067Z,87.39
2019-06-08T03:14:19.888Z,87.40
2019-06-08T03:16:50.320Z,87.02
2019-06-08T03:19:22.953Z,86.59
2019-06-08T03:21:53.297Z,86.63
2019-06-08T03:24:24.966Z,86.47
2019-06-08T03:26:58.813Z,86.86
2019-06-08T03:29:29.721Z,86.79
2019-06-08T03:32:00.875Z,86.91
2019-06-08T03:34:34.611Z,86.71
2019-06-08T03:37:03.995Z,86.56
2019-06-08T03:39:35.581Z,86.40
2019-06-08T03:42:07.415Z,86.14
2019-06-08T03:44:38.457Z,86.45
2019-06-08T03:47:09.098Z,86.62
2019-06-08T03:49:48.776Z,86.76
2019-06-08T03:52:12.175Z,86.96
2019-06-08T03:54:43.130Z,87.09
2019-06-08T03:57:14.700Z,87.14
2019-06-08T03:59:46.222Z,87.41
2019-06-08T04:02:18.770Z,87.59
2019-06-08T04:04:49.973Z,87.62
2019-06-08T04:07:21.623Z,87.70
2019-06-08T04:09:52.573Z,87.79
2019-06-08T04:12:23.063Z,87.95
2019-06-08T04:14:53.854Z,87.96
2019-06-08T04:17:24.333Z,88.03
2019-06-08T04:20:09.786Z,87.98
2019-06-08T04:22:27.278Z,88.12
2019-06-08T04:24:58.014Z,88.00
2019-06-08T04:27:28.634Z,88.12
2019-06-08T04:29:59.074Z,88.13
2019-06-08T04:32:29.569Z,88.20
2019-06-08T04:35:01.535Z,88.42
2019-06-08T04:37:32.341Z,88.61
2019-06-08T04:40:02.937Z,88.64
2019-06-08T04:42:35.016Z,88.65
2019-06-08T04:45:06.723Z,88.60
2019-06-08T04:47:38.452Z,88.67
2019-06-08T04:50:21.530Z,88.41
2019-06-08T04:52:42.642Z,88.49
2019-06-08T04:55:13.300Z,88.39
2019-06-08T04:57:47.416Z,88.50
2019-06-08T05:00:16.800Z,88.38
2019-06-08T05:02:49.329Z,88.49
2019-06-08T05:05:19.781Z,88.45
2019-06-08T05:07:50.614Z,88.59
2019-06-08T05:10:21.637Z,88.70
2019-06-08T05:12:52.458Z,88.68
2019-06-08T05:15:23.294Z,88.56
2019-06-08T05:17:55.681Z,88.47
2019-06-08T05:20:38.600Z,88.13
2019-06-08T05:22:58.726Z,87.89
2019-06-08T05:25:29.501Z,87.64
2019-06-08T05:28:00.354Z,87.60
2019-06-08T05:30:31.206Z,87.41
2019-06-08T05:33:03.269Z,86.72
2019-06-08T05:35:34.007Z,86.38
2019-06-08T05:38:04.819Z,86.40
2019-06-08T05:40:35.723Z,86.38
2019-06-08T05:43:06.322Z,86.28
2019-06-08T05:45:37.222Z,85.75
2019-06-08T05:48:07.913Z,85.57
2019-06-08T05:50:54.688Z,85.18
2019-06-08T05:53:11.036Z,85.09
2019-06-08T05:55:41.948Z,84.82
2019-06-08T05:58:12.737Z,84.82
2019-06-08T06:00:44.209Z,84.54
2019-06-08T06:03:14.888Z,84.87
2019-06-08T06:05:46.514Z,84.60
2019-06-08T06:08:19.191Z,84.50
2019-06-08T06:10:51.316Z,84.16
2019-06-08T06:13:22.913Z,83.73
2019-06-08T06:15:53.748Z,84.15
2019-06-08T06:18:24.642Z,83.96
2019-06-08T06:21:09.766Z,83.61
2019-06-08T06:23:28.419Z,83.50
2019-06-08T06:25:59.036Z,83.29
2019-06-08T06:28:29.905Z,83.42
2019-06-08T06:31:00.784Z,83.70
2019-06-08T06:33:31.686Z,83.46
2019-06-08T06:36:02.487Z,83.61
2019-06-08T06:38:33.455Z,83.71
2019-06-08T06:41:04.506Z,83.58
2019-06-08T06:43:35.153Z,83.46
2019-06-08T06:46:08.012Z,83.43
2019-06-08T06:48:38.766Z,83.30
2019-06-08T06:51:22.900Z,83.13
2019-06-08T06:53:44.989Z,83.16
2019-06-08T06:56:16.042Z,82.90
2019-06-08T06:58:47.286Z,82.41
2019-06-08T07:01:18.093Z,82.27
2019-06-08T07:03:48.626Z,82.24
2019-06-08T07:06:19.455Z,81.99
2019-06-08T07:08:50.356Z,81.51
2019-06-08T07:11:22.377Z,80.87
2019-06-08T07:13:53.068Z,80.88
2019-06-08T07:16:23.699Z,80.58
2019-06-08T07:18:54.587Z,79.50
2019-06-08T07:21:40.925Z,78.64
2019-06-08T07:23:59.051Z,78.01
2019-06-08T07:26:29.870Z,76.95
2019-06-08T07:29:00.378Z,76.07
2019-06-08T07:31:30.913Z,75.60
2019-06-08T07:34:01.694Z,75.00
2019-06-08T07:36:32.516Z,73.97
2019-06-08T07:39:03.009Z,74.02
2019-06-08T07:41:33.932Z,73.35
2019-06-08T07:44:05.044Z,73.72
2019-06-08T07:46:35.905Z,73.46
2019-06-08T07:49:06.722Z,73.05
2019-06-08T07:51:38.003Z,72.29
2019-06-08T07:54:08.799Z,71.28
2019-06-08T07:56:39.471Z,71.01
2019-06-08T07:59:10.223Z,70.67
2019-06-08T08:01:42.555Z,71.05
2019-06-08T08:04:13.190Z,71.60
2019-06-08T08:06:43.761Z,71.28
2019-06-08T08:09:14.233Z,71.42
2019-06-08T08:11:44.742Z,71.35
2019-06-08T08:14:15.694Z,70.67
2019-06-08T08:16:46.500Z,69.92
2019-06-08T08:19:17.175Z,69.72
2019-06-08T08:21:50.122Z,69.91
2019-06-08T08:24:21.777Z,69.65
2019-06-08T08:26:54.426Z,69.51
2019-06-08T08:29:31.478Z,69.09
2019-06-08T08:32:02.153Z,68.81
2019-06-08T08:34:32.821Z,68.68
2019-06-08T08:37:06.382Z,68.79
2019-06-08T08:39:37.641Z,68.59
2019-06-08T08:42:09.548Z,68.49
2019-06-08T08:44:40.425Z,68.66
2019-06-08T08:47:11.308Z,68.41
2019-06-08T08:49:41.712Z,68.15
2019-06-08T08:52:12.549Z,67.91
2019-06-08T08:54:43.270Z,68.02
2019-06-08T08:57:14.277Z,68.14
2019-06-08T08:59:47.653Z,68.62
2019-06-08T09:02:21.407Z,68.77
2019-06-08T09:04:53.323Z,68.22
2019-06-08T09:07:24.383Z,67.71
2019-06-08T09:09:56.155Z,66.91
2019-06-08T09:12:27.721Z,66.53
2019-06-08T09:15:00.195Z,66.74
2019-06-08T09:17:30.541Z,67.13
2019-06-08T09:20:03.659Z,67.52
2019-06-08T09:22:47.192Z,67.69
2019-06-08T09:25:08.762Z,67.12
2019-06-08T09:27:39.697Z,66.34
2019-06-08T09:30:10.495Z,66.02
2019-06-08T09:32:41.032Z,64.84
2019-06-08T09:35:11.861Z,63.87
2019-06-08T09:37:42.728Z,63.52
2019-06-08T09:40:13.642Z,62.77
2019-06-08T09:42:45.234Z,61.99
2019-06-08T09:45:18.184Z,61.89
2019-06-08T09:47:48.686Z,61.66
2019-06-08T09:50:19.839Z,61.46
2019-06-08T09:53:02.431Z,61.56
2019-06-08T09:55:22.844Z,62.38
2019-06-08T09:57:54.704Z,63.46
2019-06-08T10:00:29.103Z,63.99
2019-06-08T10:03:02.223Z,63.97
2019-06-08T10:05:32.010Z,63.85
2019-06-08T10:08:04.171Z,61.76
2019-06-08T10:10:35.248Z,61.14
2019-06-08T10:13:09.304Z,60.92
2019-06-08T10:15:40.929Z,61.04
2019-06-08T10:18:12.147Z,61.04
2019-06-08T10:20:48.020Z,61.55
2019-06-08T10:23:30.869Z,61.04
2019-06-08T10:25:59.189Z,61.01
2019-06-08T10:28:31.810Z,60.89
2019-06-08T10:31:08.000Z,61.27
2019-06-08T10:33:48.013Z,61.38
2019-06-08T10:36:20.166Z,61.11
2019-06-08T10:38:53.228Z,61.07
2019-06-08T10:41:27.649Z,60.57
2019-06-08T10:43:59.690Z,60.12
2019-06-08T10:46:31.714Z,59.19
2019-06-08T10:49:08.565Z,58.89
2019-06-08T10:51:41.491Z,60.13
2019-06-08T10:54:14.256Z,60.54
2019-06-08T10:56:48.584Z,61.05
2019-06-08T10:59:24.343Z,61.21
2019-06-08T11:02:00.937Z,59.80
2019-06-08T11:04:29.833Z,58.59
2019-06-08T11:07:07.021Z,58.50
2019-06-08T11:09:36.355Z,57.99
2019-06-08T11:12:14.604Z,58.43
2019-06-08T11:14:43.266Z,58.45
2019-06-08T11:17:17.770Z,58.87
2019-06-08T11:19:52.209Z,58.60
2019-06-08T11:22:27.764Z,60.07
2019-06-08T11:24:58.839Z,61.48
2019-06-08T11:27:29.694Z,65.94
2019-06-08T11:30:02.942Z,66.14
2019-06-08T11:32:38.645Z,67.81
2019-06-08T11:35:19.220Z,68.25
2019-06-08T11:37:51.544Z,66.97
2019-06-08T11:40:27.850Z,65.43
2019-06-08T11:43:00.662Z,64.32
2019-06-08T11:45:31.831Z,59.96
2019-06-08T11:48:04.348Z,55.85
2019-06-08T11:50:39.055Z,56.82
2019-06-08T11:53:14.133Z,56.21
2019-06-08T11:55:43.958Z,55.32
2019-06-08T11:58:19.357Z,54.71
2019-06-08T12:01:01.850Z,57.15
2019-06-08T12:03:32.486Z,58.30
2019-06-08T12:06:04.200Z,59.08
2019-06-08T12:08:47.214Z,59.68
2019-06-08T12:11:23.222Z,59.37
2019-06-08T12:13:54.408Z,58.77
2019-06-08T12:16:28.281Z,57.02
2019-06-08T12:19:04.129Z,57.51
2019-06-08T12:21:34.847Z,57.39
2019-06-08T12:24:08.186Z,57.04
2019-06-08T12:26:42.905Z,56.92
2019-06-08T12:29:18.972Z,58.04
2019-06-08T12:31:50.583Z,60.30
2019-06-08T12:34:22.198Z,61.14
2019-06-08T12:36:52.911Z,59.66
2019-06-08T12:39:32.196Z,58.33
2019-06-08T12:42:14.636Z,58.34
2019-06-08T12:44:47.581Z,58.10
2019-06-08T12:47:29.915Z,55.75
2019-06-08T12:50:03.816Z,55.47
2019-06-08T12:52:42.988Z,56.11
2019-06-08T12:55:17.743Z,56.76
2019-06-08T12:57:44.931Z,56.16
2019-06-08T13:00:19.568Z,56.36
2019-06-08T13:02:50.833Z,55.27
2019-06-08T13:05:24.220Z,53.37
2019-06-08T13:07:55.149Z,54.14
2019-06-08T13:10:27.957Z,53.83
2019-06-08T13:12:58.775Z,54.27
2019-06-08T13:15:30.931Z,54.19
2019-06-08T13:18:02.229Z,53.13
2019-06-08T13:20:35.348Z,53.57
2019-06-08T13:23:09.608Z,53.63
2019-06-08T13:25:43.622Z,54.35
2019-06-08T13:28:15.203Z,52.79
2019-06-08T13:30:44.491Z,52.12
2019-06-08T13:33:16.333Z,51.62
2019-06-08T13:35:48.008Z,51.32
2019-06-08T13:38:23.180Z,51.44
2019-06-08T13:40:55.450Z,51.13
2019-06-08T13:43:28.809Z,50.99
2019-06-08T13:46:00.403Z,51.34
2019-06-08T13:48:31.832Z,49.99
2019-06-08T13:51:02.451Z,50.10
2019-06-08T13:53:33.957Z,48.96
2019-06-08T13:56:07.663Z,49.22
2019-06-08T13:58:38.542Z,48.80
2019-06-08T14:01:10.202Z,49.46
2019-06-08T14:03:43.969Z,48.36
2019-06-08T14:06:16.452Z,48.81
2019-06-08T14:08:49.826Z,48.85
2019-06-08T14:11:22.272Z,47.79
2019-06-08T14:13:53.941Z,47.94
2019-06-08T14:16:28.884Z,47.80
2019-06-08T14:18:57.946Z,47.88
2019-06-08T14:21:38.687Z,48.26
2019-06-08T14:24:03.309Z,48.92
2019-06-08T14:26:34.450Z,49.58
2019-06-08T14:29:05.216Z,50.59
2019-06-08T14:31:38.074Z,51.27
2019-06-08T14:34:10.425Z,52.07
2019-06-08T14:36:41.368Z,52.29
2019-06-08T14:39:12.638Z,53.20
2019-06-08T14:41:43.597Z,54.11
2019-06-08T14:44:14.144Z,54.81
2019-06-08T14:46:45.072Z,54.62
2019-06-08T14:49:18.308Z,54.69
2019-06-08T14:51:49.797Z,54.41
2019-06-08T14:54:26.209Z,54.16
2019-06-08T14:56:54.171Z,55.15
2019-06-08T14:59:25.507Z,55.71
2019-06-08T15:01:56.504Z,55.84
2019-06-08T15:04:34.097Z,56.62
2019-06-08T15:06:59.931Z,58.53
2019-06-08T15:09:30.665Z,58.80
2019-06-08T15:12:02.756Z,57.21
2019-06-08T15:14:35.394Z,53.04
2019-06-08T15:17:08.455Z,48.92
2019-06-08T15:19:38.649Z,46.30
2019-06-08T15:22:11.294Z,45.22
2019-06-08T15:24:45.789Z,43.97
2019-06-08T15:27:21.547Z,44.34
2019-06-08T15:29:50.353Z,44.83
2019-06-08T15:32:20.901Z,43.54
2019-06-08T15:34:51.894Z,42.87
2019-06-08T15:37:29.067Z,43.31
2019-06-08T15:40:00.276Z,43.82
2019-06-08T15:42:33.572Z,45.82
2019-06-08T15:45:08.337Z,50.50
2019-06-08T15:47:40.958Z,52.32
2019-06-08T15:50:17.758Z,53.40
2019-06-08T15:52:48.241Z,53.97
2019-06-08T15:55:20.382Z,55.26
2019-06-08T15:57:51.287Z,55.87
2019-06-08T16:00:23.007Z,56.51
2019-06-08T16:02:55.766Z,57.04
2019-06-08T16:05:29.620Z,58.00
2019-06-08T16:08:02.366Z,59.02
2019-06-08T16:10:34.451Z,59.61
2019-06-08T16:13:07.413Z,59.48
2019-06-08T16:16:01.059Z,58.99
2019-06-08T16:18:33.541Z,58.51
2019-06-08T16:21:04.030Z,58.51
2019-06-08T16:23:36.053Z,57.75
2019-06-08T16:26:12.134Z,57.17
2019-06-08T16:28:43.465Z,56.94
2019-06-08T16:31:24.220Z,57.03
2019-06-08T16:34:03.497Z,57.78
2019-06-08T16:36:38.111Z,57.84
2019-06-08T16:39:09.631Z,57.11
2019-06-08T16:41:41.312Z,57.07
2019-06-08T16:44:14.138Z,56.58
2019-06-08T16:46:45.268Z,56.54
2019-06-08T16:49:16.705Z,55.66
2019-06-08T16:51:47.412Z,54.95
2019-06-08T16:54:17.877Z,54.97
2019-06-08T16:56:48.432Z,54.46
2019-06-08T16:59:18.957Z,54.94
2019-06-08T17:01:49.849Z,55.59
2019-06-08T17:04:20.458Z,55.47
2019-06-08T17:06:51.111Z,55.15
2019-06-08T17:09:21.724Z,54.97
2019-06-08T17:11:52.544Z,54.53
2019-06-08T17:14:25.114Z,55.26
2019-06-08T17:16:55.881Z,56.21
2019-06-08T17:19:26.551Z,56.91
2019-06-08T17:21:57.106Z,57.69
2019-06-08T17:24:28.131Z,57.92
2019-06-08T17:27:00.685Z,58.05
2019-06-08T17:29:32.720Z,57.96
2019-06-08T17:32:05.293Z,57.81
2019-06-08T17:34:40.486Z,57.70
2019-06-08T17:37:10.522Z,57.18
2019-06-08T17:39:42.766Z,56.64
2019-06-08T17:42:18.850Z,56.29
2019-06-08T17:44:51.605Z,56.20
2019-06-08T17:47:24.836Z,56.03
2019-06-08T17:50:00.463Z,55.88
2019-06-08T17:52:32.745Z,56.08
2019-06-08T17:55:06.126Z,56.25
2019-06-08T17:57:48.481Z,56.76
2019-06-08T18:00:12.464Z,57.38
2019-06-08T18:02:45.252Z,57.88
2019-06-08T18:05:20.337Z,58.47
2019-06-08T18:07:52.614Z,58.91
2019-06-08T18:10:27.719Z,59.74
2019-06-08T18:12:58.887Z,59.91
2019-06-08T18:15:29.568Z,60.22
2019-06-08T18:18:01.828Z,60.72
2019-06-08T18:20:34.193Z,61.30
2019-06-08T18:23:05.108Z,61.41
2019-06-08T18:25:38.798Z,61.61
2019-06-08T18:28:13.173Z,62.08
2019-06-08T18:30:44.718Z,62.33
2019-06-08T18:33:14.526Z,62.70
2019-06-08T18:35:46.908Z,63.39
2019-06-08T18:38:18.434Z,64.06
2019-06-08T18:40:49.606Z,64.15
2019-06-08T18:43:20.490Z,64.61
2019-06-08T18:45:52.721Z,64.94
2019-06-08T18:48:24.132Z,64.59
2019-06-08T18:50:57.202Z,65.05
2019-06-08T18:53:27.741Z,65.13
2019-06-08T18:56:11.693Z,65.07
2019-06-08T18:58:43.889Z,65.31
2019-06-08T19:01:17.918Z,65.09
2019-06-08T19:03:50.320Z,65.07
2019-06-08T19:06:23.407Z,65.22
2019-06-08T19:08:54.664Z,65.60
2019-06-08T19:11:33.057Z,66.24
2019-06-08T19:14:05.128Z,66.86
2019-06-08T19:16:37.915Z,67.34
2019-06-08T19:19:08.361Z,67.37
2019-06-08T19:21:40.954Z,67.32
2019-06-08T19:24:12.088Z,67.76
2019-06-08T19:26:45.424Z,67.98
2019-06-08T19:29:19.166Z,68.26
2019-06-08T19:31:51.259Z,68.47
2019-06-08T19:34:21.843Z,68.79
2019-06-08T19:36:54.400Z,69.16
2019-06-08T19:39:25.518Z,69.36
2019-06-08T19:41:57.242Z,69.38
2019-06-08T19:44:31.030Z,69.33
2019-06-08T19:47:02.234Z,69.43
2019-06-08T19:49:33.716Z,69.65
2019-06-08T19:52:04.629Z,70.13
2019-06-08T19:54:38.350Z,70.53
2019-06-08T19:57:08.664Z,70.62
2019-06-08T19:59:41.362Z,70.80
2019-06-08T20:02:13.655Z,70.86
2019-06-08T20:04:45.379Z,71.12
2019-06-08T20:07:17.814Z,70.98
2019-06-08T20:09:49.667Z,71.11
2019-06-08T20:12:21.719Z,71.18
2019-06-08T20:14:52.351Z,71.16
2019-06-08T20:17:22.915Z,71.50
2019-06-08T20:19:53.873Z,71.79
2019-06-08T20:22:24.907Z,72.10
2019-06-08T20:24:56.051Z,72.20
2019-06-08T20:27:27.733Z,72.55
2019-06-08T20:30:08.123Z,72.72
2019-06-08T20:32:37.843Z,72.90
2019-06-08T20:35:08.875Z,73.02
2019-06-08T20:37:39.539Z,73.06
2019-06-08T20:40:14.041Z,73.50
2019-06-08T20:42:49.295Z,73.77
2019-06-08T20:45:17.934Z,73.97
2019-06-08T20:47:51.144Z,74.59
2019-06-08T20:50:21.506Z,75.42
2019-06-08T20:52:53.790Z,75.12
2019-06-08T20:55:24.384Z,75.82
2019-06-08T20:57:57.498Z,76.10
2019-06-08T21:00:38.392Z,76.33
2019-06-08T21:03:09.244Z,76.79
2019-06-08T21:05:39.897Z,76.81
2019-06-08T21:08:10.516Z,76.95
2019-06-08T21:10:41.195Z,76.95
2019-06-08T21:13:12.129Z,77.18
2019-06-08T21:15:42.739Z,77.74
2019-06-08T21:18:13.339Z,77.95
2019-06-08T21:20:45.594Z,77.84
2019-06-08T21:23:17.033Z,78.11
2019-06-08T21:25:51.438Z,78.16
2019-06-08T21:28:20.107Z,78.55
2019-06-08T21:30:54.807Z,78.88
2019-06-08T21:33:22.952Z,78.96
2019-06-08T21:35:58.324Z,79.35
2019-06-08T21:38:28.019Z,79.46
2019-06-08T21:41:02.534Z,79.87
2019-06-08T21:43:31.074Z,80.16
2019-06-08T21:46:01.648Z,80.52
2019-06-08T21:48:32.417Z,81.02
2019-06-08T21:51:03.460Z,81.11
2019-06-08T21:53:34.016Z,81.50
2019-06-08T21:56:07.659Z,81.61
2019-06-08T21:58:40.183Z,81.91
2019-06-08T22:01:13.138Z,81.69
2019-06-08T22:03:44.378Z,81.74
2019-06-08T22:06:17.551Z,81.76
2019-06-08T22:08:48.178Z,82.11
2019-06-08T22:11:19.244Z,82.27
2019-06-08T22:13:51.123Z,82.36
2019-06-08T22:16:22.121Z,82.32
2019-06-08T22:18:53.084Z,82.58
2019-06-08T22:21:24.228Z,82.51
2019-06-08T22:23:57.384Z,82.38
2019-06-08T22:26:28.018Z,82.45
2019-06-08T22:29:01.143Z,82.88
2019-06-08T22:31:31.849Z,82.89
2019-06-08T22:34:04.073Z,83.00
2019-06-08T22:36:37.089Z,83.01
2019-06-08T22:39:08.405Z,83.25
2019-06-08T22:41:41.033Z,83.16
2019-06-08T22:44:12.040Z,83.25
2019-06-08T22:46:42.587Z,83.22
2019-06-08T22:49:15.235Z,83.34
2019-06-08T22:51:47.590Z,83.32
2019-06-08T22:54:17.857Z,83.57
2019-06-08T22:56:48.983Z,83.46
2019-06-08T22:59:20.242Z,83.39
2019-06-08T23:01:51.112Z,83.62
2019-06-08T23:04:21.686Z,83.70
2019-06-08T23:06:55.815Z,83.74
2019-06-08T23:09:28.418Z,83.91
2019-06-08T23:12:01.820Z,84.06
2019-06-08T23:14:31.731Z,83.97
2019-06-08T23:17:03.948Z,84.00
2019-06-08T23:19:37.398Z,84.02
2019-06-08T23:22:08.474Z,84.01
2019-06-08T23:24:39.480Z,84.11
2019-06-08T23:27:10.594Z,84.23
2019-06-08T23:29:41.510Z,84.29
2019-06-08T23:32:13.746Z,84.44
2019-06-08T23:34:47.827Z,84.51
2019-06-08T23:37:18.784Z,84.72
2019-06-08T23:39:49.613Z,84.77
2019-06-08T23:42:20.105Z,84.82
2019-06-08T23:44:50.807Z,84.88
2019-06-08T23:47:21.219Z,84.89
2019-06-08T23:49:52.146Z,85.18
2019-06-08T23:52:22.906Z,85.20
2019-06-08T23:54:54.762Z,85.22
2019-06-08T23:57:27.269Z,85.45
